createdAt,value
2022-08-01T00:00:49.525Z,27.93
2022-08-01T00:01:49.667Z,27.88
2022-08-01T00:02:49.606Z,27.88
2022-08-01T00:03:49.525Z,27.92
2022-08-01T00:04:49.526Z,27.93
2022-08-01T00:05:49.528Z,27.93
2022-08-01T00:06:49.530Z,27.90
2022-08-01T00:07:49.530Z,27.93
2022-08-01T00:08:49.530Z,27.93
2022-08-01T00:09:49.531Z,27.96
2022-08-01T00:10:49.533Z,27.90
2022-08-01T00:11:49.532Z,27.90
2022-08-01T00:12:49.535Z,27.92
2022-08-01T00:13:49.536Z,27.92
2022-08-01T00:14:49.537Z,27.94
2022-08-01T00:15:54.122Z,27.90
2022-08-01T00:16:49.538Z,27.88
2022-08-01T00:17:49.536Z,27.93
2022-08-01T00:18:49.538Z,27.90
2022-08-01T00:19:49.539Z,27.92
2022-08-01T00:20:49.542Z,27.94
2022-08-01T00:21:52.092Z,27.93
2022-08-01T00:22:49.542Z,27.93
2022-08-01T00:23:49.545Z,27.92
2022-08-01T00:24:49.544Z,27.92
2022-08-01T00:25:49.543Z,27.87
2022-08-01T00:26:49.545Z,27.97
2022-08-01T00:27:49.546Z,27.96
2022-08-01T00:28:49.555Z,27.88
2022-08-01T00:30:12.271Z,27.93
2022-08-01T00:30:49.547Z,27.84
2022-08-01T00:31:49.548Z,27.90
2022-08-01T00:32:49.549Z,27.93
2022-08-01T00:33:49.550Z,27.93
2022-08-01T00:34:49.554Z,27.85
2022-08-01T00:35:49.555Z,27.85
2022-08-01T00:36:49.555Z,27.92
2022-08-01T00:37:49.553Z,27.84
2022-08-01T00:38:49.556Z,27.87
2022-08-01T00:39:49.555Z,27.90
2022-08-01T00:40:49.556Z,27.88
2022-08-01T00:41:49.555Z,27.90
2022-08-01T00:42:49.557Z,28.00
2022-08-01T00:43:49.558Z,27.93
2022-08-01T00:44:49.560Z,27.90
2022-08-01T00:45:49.561Z,27.90
2022-08-01T00:46:49.566Z,27.92
2022-08-01T00:47:55.195Z,27.92
2022-08-01T00:48:49.648Z,27.93
2022-08-01T00:49:49.562Z,27.84
2022-08-01T00:50:49.565Z,27.92
2022-08-01T00:51:49.564Z,27.88
2022-08-01T00:52:50.098Z,27.90
2022-08-01T00:53:50.969Z,27.87
2022-08-01T00:54:49.572Z,27.93
2022-08-01T00:55:49.566Z,27.90
2022-08-01T00:56:49.569Z,27.93
2022-08-01T00:58:03.407Z,27.87
2022-08-01T00:58:49.569Z,27.79
2022-08-01T00:59:49.571Z,27.81
2022-08-01T01:00:53.683Z,27.92
2022-08-01T01:01:50.017Z,27.94
2022-08-01T01:02:49.575Z,27.87
2022-08-01T01:03:59.124Z,27.81
2022-08-01T01:04:49.576Z,27.82
2022-08-01T01:05:49.576Z,27.90
2022-08-01T01:06:49.577Z,27.93
2022-08-01T01:07:50.173Z,27.93
2022-08-01T01:08:49.579Z,27.87
2022-08-01T01:09:49.578Z,27.85
2022-08-01T01:10:49.581Z,27.84
2022-08-01T01:11:49.580Z,27.90
2022-08-01T01:12:50.243Z,27.96
2022-08-01T01:13:50.358Z,27.92
2022-08-01T01:14:49.584Z,27.96
2022-08-01T01:15:49.583Z,27.87
2022-08-01T01:16:49.585Z,27.85
2022-08-01T01:17:51.855Z,27.90
2022-08-01T01:18:49.586Z,27.84
2022-08-01T01:19:49.587Z,27.90
2022-08-01T01:20:49.587Z,27.90
2022-08-01T01:21:49.587Z,27.93
2022-08-01T01:22:49.589Z,27.90
2022-08-01T01:23:49.590Z,27.94
2022-08-01T01:24:49.592Z,27.92
2022-08-01T01:25:49.591Z,27.79
2022-08-01T01:26:49.593Z,27.99
2022-08-01T01:27:49.594Z,27.94
2022-08-01T01:28:49.594Z,27.82
2022-08-01T01:29:59.449Z,27.88
2022-08-01T01:30:49.596Z,27.90
2022-08-01T01:31:49.597Z,27.87
2022-08-01T01:32:49.597Z,27.85
2022-08-01T01:33:49.597Z,27.78
2022-08-01T01:34:49.599Z,27.87
2022-08-01T01:35:49.599Z,27.77
2022-08-01T01:36:49.607Z,27.92
2022-08-01T01:37:49.601Z,27.88
2022-08-01T01:38:49.603Z,27.85
2022-08-01T01:39:54.346Z,27.84
2022-08-01T01:40:49.603Z,27.87
2022-08-01T01:41:49.604Z,27.84
2022-08-01T01:42:49.609Z,27.85
2022-08-01T01:43:49.607Z,27.92
2022-08-01T01:44:49.607Z,27.90
2022-08-01T01:45:49.607Z,27.84
2022-08-01T01:46:49.609Z,27.92
2022-08-01T01:47:49.610Z,27.84
2022-08-01T01:48:49.664Z,27.81
2022-08-01T01:49:49.611Z,27.84
2022-08-01T01:50:49.613Z,27.82
2022-08-01T01:52:02.122Z,27.88
2022-08-01T01:52:49.614Z,27.84
2022-08-01T01:53:49.615Z,27.82
2022-08-01T01:54:49.617Z,27.87
2022-08-01T01:55:50.250Z,27.85
2022-08-01T01:56:49.627Z,27.88
2022-08-01T01:57:49.617Z,27.90
2022-08-01T01:58:49.618Z,27.87
2022-08-01T01:59:49.632Z,27.85
2022-08-01T02:00:50.438Z,27.96
2022-08-01T02:02:05.209Z,27.81
2022-08-01T02:02:49.729Z,27.79
2022-08-01T02:03:49.623Z,27.94
2022-08-01T02:04:49.623Z,27.81
2022-08-01T02:05:49.622Z,27.85
2022-08-01T02:06:49.625Z,27.84
2022-08-01T02:07:49.625Z,27.93
2022-08-01T02:08:49.626Z,27.82
2022-08-01T02:09:49.627Z,27.74
2022-08-01T02:10:49.629Z,27.90
2022-08-01T02:12:08.377Z,27.84
2022-08-01T02:12:49.631Z,27.85
2022-08-01T02:13:49.630Z,27.82
2022-08-01T02:14:49.636Z,27.87
2022-08-01T02:15:59.750Z,27.84
2022-08-01T02:16:49.633Z,27.88
2022-08-01T02:17:49.665Z,27.74
2022-08-01T02:18:49.637Z,27.85
2022-08-01T02:19:49.635Z,27.94
2022-08-01T02:20:49.636Z,27.82
2022-08-01T02:21:49.637Z,27.74
2022-08-01T02:22:49.641Z,27.79
2022-08-01T02:23:49.639Z,27.85
2022-08-01T02:24:49.639Z,27.74
2022-08-01T02:26:10.924Z,27.72
2022-08-01T02:26:49.641Z,27.81
2022-08-01T02:27:49.645Z,27.81
2022-08-01T02:28:49.647Z,27.92
2022-08-01T02:29:49.642Z,27.90
2022-08-01T02:30:49.645Z,27.82
2022-08-01T02:31:49.644Z,27.85
2022-08-01T02:32:49.646Z,27.87
2022-08-01T02:33:49.645Z,27.97
2022-08-01T02:34:49.647Z,27.87
2022-08-01T02:36:30.521Z,27.77
2022-08-01T02:36:49.650Z,27.84
2022-08-01T02:37:49.649Z,27.90
2022-08-01T02:38:49.651Z,27.85
2022-08-01T02:39:49.654Z,27.85
2022-08-01T02:40:49.653Z,28.00
2022-08-01T02:41:49.653Z,27.70
2022-08-01T02:42:49.654Z,27.75
2022-08-01T02:43:50.841Z,27.96
2022-08-01T02:44:49.655Z,27.75
2022-08-01T02:45:49.658Z,27.85
2022-08-01T02:46:49.658Z,27.87
2022-08-01T02:47:49.658Z,27.74
2022-08-01T02:48:49.701Z,27.96
2022-08-01T02:49:53.206Z,27.70
2022-08-01T02:50:49.661Z,27.90
2022-08-01T02:51:49.662Z,27.78
2022-08-01T02:52:49.663Z,27.75
2022-08-01T02:53:49.663Z,27.85
2022-08-01T02:54:49.664Z,27.82
2022-08-01T02:55:49.664Z,27.81
2022-08-01T02:56:49.665Z,27.84
2022-08-01T02:57:52.387Z,27.79
2022-08-01T02:58:49.666Z,27.90
2022-08-01T02:59:49.667Z,27.84
2022-08-01T03:00:49.668Z,27.84
2022-08-01T03:01:49.799Z,27.74
2022-08-01T03:02:49.670Z,27.81
2022-08-01T03:03:49.670Z,28.02
2022-08-01T03:04:52.720Z,27.85
2022-08-01T03:05:49.672Z,27.92
2022-08-01T03:06:49.673Z,27.82
2022-08-01T03:07:49.677Z,27.75
2022-08-01T03:08:49.684Z,27.72
2022-08-01T03:09:49.675Z,27.75
2022-08-01T03:10:49.675Z,27.77
2022-08-01T03:11:49.678Z,27.92
2022-08-01T03:12:49.679Z,27.82
2022-08-01T03:13:49.680Z,27.97
2022-08-01T03:14:50.361Z,27.78
2022-08-01T03:15:49.679Z,27.96
2022-08-01T03:16:49.680Z,27.79
2022-08-01T03:17:49.680Z,27.81
2022-08-01T03:18:49.683Z,27.92
2022-08-01T03:19:49.683Z,27.90
2022-08-01T03:20:49.687Z,27.88
2022-08-01T03:21:49.687Z,27.77
2022-08-01T03:22:49.689Z,27.82
2022-08-01T03:23:54.733Z,27.79
2022-08-01T03:24:49.688Z,27.96
2022-08-01T03:25:49.688Z,27.79
2022-08-01T03:26:49.693Z,27.87
2022-08-01T03:27:49.690Z,27.75
2022-08-01T03:28:49.694Z,27.85
2022-08-01T03:29:49.691Z,27.88
2022-08-01T03:30:49.692Z,27.84
2022-08-01T03:31:49.693Z,27.79
2022-08-01T03:32:49.694Z,27.87
2022-08-01T03:33:49.693Z,27.77
2022-08-01T03:34:49.696Z,27.88
2022-08-01T03:35:49.697Z,27.70
2022-08-01T03:36:49.945Z,27.85
2022-08-01T03:38:14.865Z,27.88
2022-08-01T03:38:49.697Z,27.85
2022-08-01T03:39:49.701Z,27.84
2022-08-01T03:40:49.698Z,27.84
2022-08-01T03:41:53.619Z,27.82
2022-08-01T03:42:49.701Z,27.74
2022-08-01T03:43:49.703Z,27.79
2022-08-01T03:44:49.701Z,27.87
2022-08-01T03:45:49.706Z,27.82
2022-08-01T03:46:49.703Z,27.90
2022-08-01T03:47:49.705Z,27.84
2022-08-01T03:48:49.774Z,27.82
2022-08-01T03:49:49.707Z,27.90
2022-08-01T03:50:49.714Z,27.82
2022-08-01T03:51:49.708Z,27.87
2022-08-01T03:52:49.707Z,27.84
2022-08-01T03:53:49.711Z,27.78
2022-08-01T03:54:49.711Z,27.77
2022-08-01T03:55:49.712Z,27.84
2022-08-01T03:56:49.711Z,27.81
2022-08-01T03:57:49.713Z,27.72
2022-08-01T03:58:49.934Z,27.84
2022-08-01T03:59:49.715Z,27.78
2022-08-01T04:00:49.714Z,27.84
2022-08-01T04:01:49.809Z,27.85
2022-08-01T04:02:49.726Z,27.81
2022-08-01T04:03:49.718Z,27.84
2022-08-01T04:04:49.719Z,27.81
2022-08-01T04:05:49.719Z,27.88
2022-08-01T04:06:49.721Z,27.81
2022-08-01T04:07:49.722Z,27.82
2022-08-01T04:08:49.720Z,27.84
2022-08-01T04:09:49.722Z,27.84
2022-08-01T04:10:50.434Z,27.84
2022-08-01T04:11:49.724Z,27.82
2022-08-01T04:12:49.730Z,27.88
2022-08-01T04:13:49.726Z,27.84
2022-08-01T04:14:49.727Z,27.78
2022-08-01T04:15:49.729Z,27.81
2022-08-01T04:16:49.726Z,27.85
2022-08-01T04:17:49.727Z,27.87
2022-08-01T04:18:49.727Z,27.77
2022-08-01T04:19:49.732Z,27.75
2022-08-01T04:20:49.730Z,27.79
2022-08-01T04:21:49.734Z,27.84
2022-08-01T04:22:49.733Z,27.67
2022-08-01T04:23:51.607Z,27.81
2022-08-01T04:24:54.531Z,27.81
2022-08-01T04:25:49.733Z,27.85
2022-08-01T04:26:49.733Z,27.82
2022-08-01T04:27:51.777Z,27.78
2022-08-01T04:28:49.735Z,27.85
2022-08-01T04:29:49.781Z,27.85
2022-08-01T04:30:49.737Z,27.84
2022-08-01T04:31:49.740Z,27.75
2022-08-01T04:32:49.737Z,27.84
2022-08-01T04:33:49.739Z,27.88
2022-08-01T04:34:49.814Z,27.81
2022-08-01T04:36:03.720Z,27.82
2022-08-01T04:36:49.743Z,27.85
2022-08-01T04:37:49.743Z,27.81
2022-08-01T04:38:49.744Z,27.79
2022-08-01T04:39:50.252Z,27.78
2022-08-01T04:40:49.743Z,27.84
2022-08-01T04:41:49.745Z,27.69
2022-08-01T04:42:49.746Z,27.75
2022-08-01T04:43:49.749Z,27.85
2022-08-01T04:44:49.748Z,27.78
2022-08-01T04:45:49.750Z,27.84
2022-08-01T04:46:49.749Z,27.81
2022-08-01T04:47:49.757Z,27.85
2022-08-01T04:48:49.820Z,27.81
2022-08-01T04:49:49.790Z,27.78
2022-08-01T04:50:49.756Z,27.81
2022-08-01T04:51:49.754Z,27.84
2022-08-01T04:52:49.904Z,27.78
2022-08-01T04:53:49.755Z,27.78
2022-08-01T04:54:49.757Z,27.82
2022-08-01T04:55:49.757Z,27.82
2022-08-01T04:56:51.423Z,27.82
2022-08-01T04:57:49.760Z,27.75
2022-08-01T04:58:49.760Z,27.84
2022-08-01T04:59:49.761Z,27.78
2022-08-01T05:00:49.829Z,27.79
2022-08-01T05:01:49.842Z,27.75
2022-08-01T05:02:49.762Z,27.84
2022-08-01T05:03:49.763Z,27.75
2022-08-01T05:04:49.763Z,27.78
2022-08-01T05:05:49.763Z,27.82
2022-08-01T05:06:49.765Z,27.85
2022-08-01T05:07:49.767Z,27.82
2022-08-01T05:08:49.770Z,27.81
2022-08-01T05:09:49.771Z,27.82
2022-08-01T05:10:49.766Z,27.85
2022-08-01T05:11:49.770Z,27.72
2022-08-01T05:12:49.768Z,27.88
2022-08-01T05:13:49.770Z,27.85
2022-08-01T05:14:49.771Z,27.81
2022-08-01T05:15:49.773Z,27.77
2022-08-01T05:16:49.772Z,27.79
2022-08-01T05:17:49.773Z,27.78
2022-08-01T05:18:49.774Z,27.78
2022-08-01T05:19:49.775Z,27.77
2022-08-01T05:20:49.774Z,27.79
2022-08-01T05:21:49.776Z,27.79
2022-08-01T05:22:49.777Z,27.81
2022-08-01T05:23:49.779Z,27.78
2022-08-01T05:24:49.777Z,27.78
2022-08-01T05:25:57.713Z,27.81
2022-08-01T05:26:49.780Z,27.81
2022-08-01T05:27:51.108Z,27.82
2022-08-01T05:28:49.779Z,27.78
2022-08-01T05:29:49.783Z,27.78
2022-08-01T05:30:49.782Z,27.70
2022-08-01T05:31:49.784Z,27.77
2022-08-01T05:32:49.784Z,27.74
2022-08-01T05:33:49.785Z,27.81
2022-08-01T05:34:49.786Z,27.78
2022-08-01T05:35:49.791Z,27.87
2022-08-01T05:36:52.919Z,27.70
2022-08-01T05:37:49.790Z,27.75
2022-08-01T05:38:49.789Z,27.72
2022-08-01T05:39:49.791Z,27.78
2022-08-01T05:40:49.795Z,27.82
2022-08-01T05:41:49.791Z,27.72
2022-08-01T05:42:49.790Z,27.81
2022-08-01T05:43:49.794Z,27.77
2022-08-01T05:44:49.794Z,27.81
2022-08-01T05:45:49.794Z,27.78
2022-08-01T05:46:49.797Z,27.78
2022-08-01T05:47:49.797Z,27.79
2022-08-01T05:48:49.841Z,27.81
2022-08-01T05:49:49.796Z,27.72
2022-08-01T05:50:49.798Z,27.78
2022-08-01T05:51:49.800Z,27.75
2022-08-01T05:52:49.798Z,27.77
2022-08-01T05:53:49.800Z,27.78
2022-08-01T05:54:49.800Z,27.75
2022-08-01T05:55:49.803Z,27.75
2022-08-01T05:56:49.804Z,27.75
2022-08-01T05:57:49.803Z,27.84
2022-08-01T05:58:49.803Z,27.77
2022-08-01T05:59:49.807Z,27.77
2022-08-01T06:00:49.809Z,27.75
2022-08-01T06:01:49.889Z,27.79
2022-08-01T06:02:49.811Z,27.75
2022-08-01T06:03:49.810Z,27.77
2022-08-01T06:04:49.807Z,27.79
2022-08-01T06:05:49.809Z,27.79
2022-08-01T06:06:49.809Z,27.78
2022-08-01T06:07:49.811Z,27.81
2022-08-01T06:08:49.819Z,27.78
2022-08-01T06:09:49.814Z,27.75
2022-08-01T06:10:49.811Z,27.72
2022-08-01T06:11:49.813Z,27.78
2022-08-01T06:12:49.813Z,27.77
2022-08-01T06:13:49.815Z,27.74
2022-08-01T06:14:49.816Z,27.78
2022-08-01T06:15:49.818Z,27.70
2022-08-01T06:16:49.817Z,27.78
2022-08-01T06:17:49.817Z,27.75
2022-08-01T06:18:52.796Z,27.74
2022-08-01T06:19:49.819Z,27.81
2022-08-01T06:20:49.820Z,27.79
2022-08-01T06:21:49.822Z,27.79
2022-08-01T06:22:51.775Z,27.70
2022-08-01T06:23:49.824Z,27.78
2022-08-01T06:24:49.821Z,27.78
2022-08-01T06:25:49.824Z,27.69
2022-08-01T06:26:49.824Z,27.82
2022-08-01T06:27:49.825Z,27.78
2022-08-01T06:28:49.825Z,27.74
2022-08-01T06:29:51.156Z,27.77
2022-08-01T06:30:49.826Z,27.70
2022-08-01T06:31:49.828Z,27.81
2022-08-01T06:32:49.828Z,27.75
2022-08-01T06:33:49.828Z,27.78
2022-08-01T06:34:49.831Z,27.77
2022-08-01T06:35:49.832Z,27.78
2022-08-01T06:36:49.831Z,27.82
2022-08-01T06:37:49.832Z,27.74
2022-08-01T06:38:49.833Z,27.81
2022-08-01T06:39:49.833Z,27.77
2022-08-01T06:40:49.833Z,27.77
2022-08-01T06:41:49.835Z,27.74
2022-08-01T06:42:49.835Z,27.75
2022-08-01T06:43:49.840Z,27.77
2022-08-01T06:44:49.836Z,27.75
2022-08-01T06:45:49.842Z,27.78
2022-08-01T06:46:49.839Z,27.75
2022-08-01T06:47:50.908Z,27.78
2022-08-01T06:48:49.907Z,27.81
2022-08-01T06:49:49.842Z,27.77
2022-08-01T06:50:49.842Z,27.67
2022-08-01T06:51:49.843Z,27.72
2022-08-01T06:52:49.844Z,27.72
2022-08-01T06:53:49.843Z,27.75
2022-08-01T06:54:49.844Z,27.77
2022-08-01T06:55:49.846Z,27.78
2022-08-01T06:56:49.846Z,27.74
2022-08-01T06:57:49.848Z,27.81
2022-08-01T06:58:49.848Z,27.78
2022-08-01T06:59:54.295Z,27.78
2022-08-01T07:00:52.545Z,27.72
2022-08-01T07:01:49.849Z,27.77
2022-08-01T07:02:49.853Z,27.74
2022-08-01T07:03:53.320Z,27.74
2022-08-01T07:04:49.852Z,27.75
2022-08-01T07:05:49.853Z,27.70
2022-08-01T07:06:49.851Z,27.82
2022-08-01T07:07:49.855Z,27.79
2022-08-01T07:08:49.855Z,27.79
2022-08-01T07:09:49.857Z,27.74
2022-08-01T07:10:49.854Z,27.78
2022-08-01T07:11:49.856Z,27.74
2022-08-01T07:12:49.859Z,27.79
2022-08-01T07:13:49.867Z,27.67
2022-08-01T07:14:49.859Z,27.75
2022-08-01T07:15:49.862Z,27.81
2022-08-01T07:16:49.860Z,27.70
2022-08-01T07:17:49.861Z,27.74
2022-08-01T07:18:49.860Z,27.79
2022-08-01T07:19:49.868Z,27.79
2022-08-01T07:20:51.870Z,27.70
2022-08-01T07:21:50.188Z,27.78
2022-08-01T07:22:49.865Z,27.78
2022-08-01T07:23:49.868Z,27.74
2022-08-01T07:24:49.865Z,27.77
2022-08-01T07:25:50.099Z,27.81
2022-08-01T07:26:53.595Z,27.77
2022-08-01T07:27:49.870Z,27.79
2022-08-01T07:28:49.868Z,27.74
2022-08-01T07:29:49.869Z,27.77
2022-08-01T07:30:49.870Z,27.75
2022-08-01T07:31:49.872Z,27.70
2022-08-01T07:32:49.873Z,27.77
2022-08-01T07:33:49.872Z,27.81
2022-08-01T07:34:49.875Z,27.72
2022-08-01T07:35:49.876Z,27.78
2022-08-01T07:36:49.873Z,27.79
2022-08-01T07:37:49.877Z,27.72
2022-08-01T07:38:49.877Z,27.75
2022-08-01T07:39:49.878Z,27.75
2022-08-01T07:40:49.876Z,27.72
2022-08-01T07:42:05.986Z,27.69
2022-08-01T07:42:49.878Z,27.67
2022-08-01T07:43:56.701Z,27.75
2022-08-01T07:44:49.880Z,27.67
2022-08-01T07:45:49.881Z,27.70
2022-08-01T07:46:49.881Z,27.70
2022-08-01T07:47:49.883Z,27.75
2022-08-01T07:48:49.935Z,27.78
2022-08-01T07:49:49.885Z,27.75
2022-08-01T07:50:49.884Z,27.75
2022-08-01T07:52:03.172Z,27.74
2022-08-01T07:52:49.887Z,27.75
2022-08-01T07:53:49.887Z,27.69
2022-08-01T07:54:52.238Z,27.70
2022-08-01T07:55:49.890Z,27.70
2022-08-01T07:56:49.890Z,27.84
2022-08-01T07:57:49.890Z,27.81
2022-08-01T07:58:49.892Z,27.79
2022-08-01T07:59:49.894Z,27.81
2022-08-01T08:00:49.892Z,27.81
2022-08-01T08:01:49.955Z,27.77
2022-08-01T08:02:49.896Z,27.84
2022-08-01T08:03:49.894Z,27.78
2022-08-01T08:04:49.897Z,27.74
2022-08-01T08:05:57.730Z,27.81
2022-08-01T08:06:49.898Z,27.81
2022-08-01T08:07:49.898Z,27.78
2022-08-01T08:08:49.900Z,27.81
2022-08-01T08:09:51.334Z,27.85
2022-08-01T08:10:49.902Z,27.81
2022-08-01T08:11:49.899Z,27.81
2022-08-01T08:12:49.901Z,27.81
2022-08-01T08:13:49.903Z,27.77
2022-08-01T08:14:49.903Z,27.85
2022-08-01T08:15:49.905Z,27.78
2022-08-01T08:16:49.904Z,27.82
2022-08-01T08:17:54.983Z,27.72
2022-08-01T08:18:49.906Z,27.75
2022-08-01T08:19:49.908Z,27.82
2022-08-01T08:20:50.211Z,27.72
2022-08-01T08:21:49.907Z,27.74
2022-08-01T08:22:49.909Z,27.82
2022-08-01T08:23:49.910Z,27.81
2022-08-01T08:24:49.910Z,27.79
2022-08-01T08:25:49.914Z,27.82
2022-08-01T08:26:52.158Z,27.84
2022-08-01T08:27:49.914Z,27.78
2022-08-01T08:28:49.914Z,27.78
2022-08-01T08:29:49.916Z,27.84
2022-08-01T08:30:49.916Z,27.75
2022-08-01T08:31:52.369Z,27.85
2022-08-01T08:32:49.920Z,27.75
2022-08-01T08:33:49.917Z,27.87
2022-08-01T08:34:49.919Z,27.84
2022-08-01T08:35:53.770Z,27.79
2022-08-01T08:36:49.921Z,27.87
2022-08-01T08:37:49.986Z,27.82
2022-08-01T08:38:49.923Z,27.81
2022-08-01T08:39:49.922Z,27.75
2022-08-01T08:40:49.924Z,27.79
2022-08-01T08:41:50.233Z,27.82
2022-08-01T08:42:49.925Z,27.67
2022-08-01T08:43:49.926Z,27.78
2022-08-01T08:44:49.927Z,27.82
2022-08-01T08:45:56.228Z,27.81
2022-08-01T08:46:49.936Z,27.81
2022-08-01T08:47:49.929Z,27.85
2022-08-01T08:48:49.979Z,27.79
2022-08-01T08:49:50.052Z,27.84
2022-08-01T08:50:49.931Z,27.78
2022-08-01T08:51:49.934Z,27.77
2022-08-01T08:52:49.932Z,27.85
2022-08-01T08:53:49.934Z,27.78
2022-08-01T08:54:49.936Z,27.81
2022-08-01T08:55:55.791Z,27.82
2022-08-01T08:56:49.940Z,27.82
2022-08-01T08:57:49.936Z,27.78
2022-08-01T08:58:49.937Z,27.78
2022-08-01T08:59:49.944Z,27.88
2022-08-01T09:00:49.942Z,27.85
2022-08-01T09:01:49.939Z,27.82
2022-08-01T09:02:50.050Z,27.69
2022-08-01T09:03:49.942Z,27.87
2022-08-01T09:04:49.945Z,27.75
2022-08-01T09:05:49.944Z,27.81
2022-08-01T09:06:49.945Z,27.93
2022-08-01T09:07:49.944Z,27.77
2022-08-01T09:08:49.946Z,27.90
2022-08-01T09:09:49.946Z,27.84
2022-08-01T09:10:49.947Z,27.87
2022-08-01T09:12:05.126Z,27.81
2022-08-01T09:12:49.949Z,27.79
2022-08-01T09:13:49.948Z,27.85
2022-08-01T09:14:49.951Z,27.88
2022-08-01T09:15:49.951Z,27.84
2022-08-01T09:16:49.953Z,27.72
2022-08-01T09:17:49.953Z,27.92
2022-08-01T09:18:53.563Z,27.77
2022-08-01T09:19:49.953Z,27.78
2022-08-01T09:20:49.957Z,27.74
2022-08-01T09:21:49.955Z,27.88
2022-08-01T09:22:49.960Z,27.79
2022-08-01T09:23:53.349Z,27.79
2022-08-01T09:24:49.957Z,27.93
2022-08-01T09:25:49.959Z,27.93
2022-08-01T09:26:49.959Z,27.92
2022-08-01T09:27:49.960Z,27.82
2022-08-01T09:28:49.963Z,27.85
2022-08-01T09:30:01.134Z,27.74
2022-08-01T09:30:49.963Z,27.87
2022-08-01T09:31:49.964Z,27.85
2022-08-01T09:32:49.966Z,27.74
2022-08-01T09:33:50.731Z,27.75
2022-08-01T09:34:49.968Z,27.94
2022-08-01T09:35:49.966Z,27.88
2022-08-01T09:36:49.971Z,27.92
2022-08-01T09:37:49.969Z,27.92
2022-08-01T09:38:50.969Z,27.90
2022-08-01T09:39:49.971Z,27.81
2022-08-01T09:40:49.970Z,27.77
2022-08-01T09:41:49.972Z,27.88
2022-08-01T09:42:49.972Z,27.94
2022-08-01T09:43:50.051Z,27.92
2022-08-01T09:44:54.280Z,27.92
2022-08-01T09:45:50.693Z,27.81
2022-08-01T09:46:49.977Z,27.90
2022-08-01T09:47:49.982Z,27.84
2022-08-01T09:48:50.060Z,27.84
2022-08-01T09:49:52.198Z,27.88
2022-08-01T09:50:49.983Z,27.85
2022-08-01T09:51:59.816Z,27.87
2022-08-01T09:52:50.081Z,27.84
2022-08-01T09:53:52.569Z,27.82
2022-08-01T09:54:49.984Z,27.93
2022-08-01T09:55:49.984Z,27.92
2022-08-01T09:56:49.985Z,27.92
2022-08-01T09:57:49.983Z,27.82
2022-08-01T09:58:53.704Z,27.92
2022-08-01T09:59:59.723Z,27.90
2022-08-01T10:00:49.988Z,27.85
2022-08-01T10:01:49.995Z,27.85
2022-08-01T10:02:49.990Z,27.81
2022-08-01T10:03:50.048Z,27.93
2022-08-01T10:04:50.721Z,27.90
2022-08-01T10:05:50.274Z,27.88
2022-08-01T10:06:49.992Z,27.92
2022-08-01T10:07:49.993Z,27.85
2022-08-01T10:08:49.993Z,27.93
2022-08-01T10:09:49.996Z,27.90
2022-08-01T10:10:49.996Z,27.90
2022-08-01T10:11:49.996Z,27.84
2022-08-01T10:12:49.999Z,27.93
2022-08-01T10:13:49.997Z,27.85
2022-08-01T10:14:50.375Z,27.92
2022-08-01T10:15:50.002Z,27.92
2022-08-01T10:16:53.223Z,27.96
2022-08-01T10:17:51.563Z,27.93
2022-08-01T10:18:50.006Z,27.93
2022-08-01T10:19:50.004Z,27.96
2022-08-01T10:20:50.004Z,27.92
2022-08-01T10:21:57.745Z,27.93
2022-08-01T10:22:50.009Z,27.85
2022-08-01T10:23:50.021Z,27.97
2022-08-01T10:24:50.010Z,27.96
2022-08-01T10:25:50.020Z,27.93
2022-08-01T10:26:50.009Z,27.97
2022-08-01T10:27:50.015Z,27.94
2022-08-01T10:28:50.020Z,27.93
2022-08-01T10:30:06.026Z,27.90
2022-08-01T10:30:50.026Z,27.93
2022-08-01T10:31:50.536Z,27.87
2022-08-01T10:32:50.798Z,27.92
2022-08-01T10:33:53.163Z,27.92
2022-08-01T10:34:50.023Z,27.94
2022-08-01T10:35:50.020Z,27.96
2022-08-01T10:36:50.020Z,27.90
2022-08-01T10:37:52.003Z,27.94
2022-08-01T10:38:50.019Z,27.90
2022-08-01T10:39:50.020Z,27.87
2022-08-01T10:40:50.051Z,27.99
2022-08-01T10:41:50.021Z,27.92
2022-08-01T10:42:50.024Z,27.90
2022-08-01T10:43:50.030Z,27.96
2022-08-01T10:44:50.027Z,27.85
2022-08-01T10:45:50.025Z,27.92
2022-08-01T10:46:50.029Z,27.96
2022-08-01T10:47:51.158Z,27.96
2022-08-01T10:48:50.098Z,27.94
2022-08-01T10:49:50.029Z,27.99
2022-08-01T10:50:50.030Z,27.84
2022-08-01T10:51:52.375Z,27.90
2022-08-01T10:52:50.032Z,27.96
2022-08-01T10:53:50.031Z,27.93
2022-08-01T10:54:52.616Z,27.92
2022-08-01T10:55:50.033Z,27.92
2022-08-01T10:56:50.045Z,27.94
2022-08-01T10:57:52.920Z,27.90
2022-08-01T10:58:50.038Z,27.93
2022-08-01T11:00:00.986Z,27.97
2022-08-01T11:00:50.040Z,27.88
2022-08-01T11:01:50.100Z,27.93
2022-08-01T11:02:50.042Z,27.88
2022-08-01T11:03:57.512Z,27.87
2022-08-01T11:04:50.042Z,27.90
2022-08-01T11:05:50.049Z,27.87
2022-08-01T11:06:50.044Z,27.93
2022-08-01T11:07:50.045Z,27.90
2022-08-01T11:08:50.047Z,27.85
2022-08-01T11:09:51.932Z,27.93
2022-08-01T11:10:50.050Z,27.94
2022-08-01T11:11:50.050Z,27.85
2022-08-01T11:12:50.049Z,27.94
2022-08-01T11:13:50.049Z,27.92
2022-08-01T11:14:55.665Z,28.00
2022-08-01T11:15:50.971Z,27.90
2022-08-01T11:16:50.054Z,27.93
2022-08-01T11:17:50.053Z,27.96
2022-08-01T11:18:50.057Z,27.92
2022-08-01T11:19:50.056Z,27.96
2022-08-01T11:20:50.061Z,27.93
2022-08-01T11:21:56.244Z,27.90
2022-08-01T11:22:50.059Z,27.90
2022-08-01T11:23:50.063Z,27.94
2022-08-01T11:24:51.051Z,27.97
2022-08-01T11:26:05.561Z,27.99
2022-08-01T11:26:50.066Z,27.88
2022-08-01T11:27:50.063Z,27.96
2022-08-01T11:29:11.187Z,27.97
2022-08-01T11:29:50.064Z,27.94
2022-08-01T11:30:50.067Z,27.96
2022-08-01T11:31:50.066Z,28.03
2022-08-01T11:33:10.299Z,27.96
2022-08-01T11:33:50.067Z,27.94
2022-08-01T11:34:50.073Z,27.93
2022-08-01T11:35:50.072Z,27.97
2022-08-01T11:36:59.284Z,28.00
2022-08-01T11:37:50.073Z,27.97
2022-08-01T11:38:50.074Z,27.94
2022-08-01T11:39:50.073Z,27.96
2022-08-01T11:40:50.077Z,27.97
2022-08-01T11:41:50.090Z,27.94
2022-08-01T11:42:50.076Z,27.96
2022-08-01T11:43:50.078Z,27.96
2022-08-01T11:44:50.095Z,27.99
2022-08-01T11:45:50.083Z,27.99
2022-08-01T11:46:51.227Z,28.00
2022-08-01T11:47:50.261Z,28.02
2022-08-01T11:48:50.145Z,27.97
2022-08-01T11:49:50.112Z,27.97
2022-08-01T11:50:50.090Z,28.02
2022-08-01T11:51:50.085Z,27.94
2022-08-01T11:52:50.086Z,28.03
2022-08-01T11:53:50.236Z,27.92
2022-08-01T11:54:50.088Z,28.07
2022-08-01T11:55:51.209Z,27.99
2022-08-01T11:56:50.088Z,27.94
2022-08-01T11:57:50.089Z,27.97
2022-08-01T11:58:50.092Z,27.97
2022-08-01T12:00:02.899Z,28.02
2022-08-01T12:00:50.094Z,28.07
2022-08-01T12:01:50.093Z,28.14
2022-08-01T12:02:50.134Z,28.12
2022-08-01T12:03:50.095Z,28.02
2022-08-01T12:04:50.096Z,27.97
2022-08-01T12:05:50.096Z,28.09
2022-08-01T12:06:50.279Z,28.09
2022-08-01T12:07:50.105Z,28.11
2022-08-01T12:08:50.099Z,28.11
2022-08-01T12:09:50.102Z,27.96
2022-08-01T12:10:50.149Z,28.02
2022-08-01T12:11:50.104Z,28.03
2022-08-01T12:12:50.102Z,28.09
2022-08-01T12:13:50.104Z,28.11
2022-08-01T12:14:50.104Z,28.07
2022-08-01T12:15:54.744Z,28.11
2022-08-01T12:16:50.106Z,28.04
2022-08-01T12:17:58.648Z,28.11
2022-08-01T12:18:50.109Z,28.06
2022-08-01T12:19:50.111Z,28.09
2022-08-01T12:20:56.659Z,28.09
2022-08-01T12:21:53.253Z,28.07
2022-08-01T12:22:50.113Z,28.11
2022-08-01T12:23:50.116Z,28.11
2022-08-01T12:24:50.114Z,27.97
2022-08-01T12:25:50.116Z,28.09
2022-08-01T12:26:50.115Z,28.07
2022-08-01T12:27:54.347Z,28.09
2022-08-01T12:28:50.116Z,28.03
2022-08-01T12:29:50.120Z,28.06
2022-08-01T12:30:50.121Z,28.11
2022-08-01T12:31:50.122Z,28.09
2022-08-01T12:32:50.123Z,28.07
2022-08-01T12:33:50.122Z,27.97
2022-08-01T12:34:50.122Z,28.06
2022-08-01T12:35:50.128Z,28.06
2022-08-01T12:36:50.126Z,28.06
2022-08-01T12:37:50.129Z,28.03
2022-08-01T12:38:50.126Z,28.09
2022-08-01T12:39:50.129Z,28.07
2022-08-01T12:40:53.325Z,28.03
2022-08-01T12:41:50.131Z,28.09
2022-08-01T12:42:50.132Z,28.04
2022-08-01T12:43:50.132Z,28.06
2022-08-01T12:44:50.133Z,28.06
2022-08-01T12:45:56.523Z,28.07
2022-08-01T12:46:50.133Z,28.09
2022-08-01T12:47:50.135Z,28.03
2022-08-01T12:48:50.203Z,28.03
2022-08-01T12:49:50.137Z,28.09
2022-08-01T12:50:50.137Z,28.03
2022-08-01T12:51:57.481Z,28.06
2022-08-01T12:52:50.140Z,28.11